Time;durP1;ratioP1;P1;durP2;ratioP2;P2;SDS_P1;SDS_P2;PMS_P1;PMS_P2;Temp;Humidity;BMP_temperature;BMP_pressure;BME280_temperature;BME280_humidity;BME280_pressure;Samples;Min_cycle;Max_cycle;Signal;HPM_P1;HPM_P2
2022/05/08 00:00:12;;;;;;;37.47;22.60;;;;;;;;;;6229270;28;20160;-56
2022/05/08 00:03:32;;;;;;;40.33;24.23;;;;;;;;;;6228570;28;20104;-58
2022/05/08 00:06:33;;;;;;;40.35;24.25;;;;;;;;;;6226258;28;20053;-57
2022/05/08 00:09:33;;;;;;;40.97;24.38;;;;;;;;;;6228446;28;20080;-58
2022/05/08 00:12:35;;;;;;;38.47;23.05;;;;;;;;;;6222829;28;20042;-57
2022/05/08 00:15:36;;;;;;;38.72;24.27;;;;;;;;;;6221312;28;20046;-58
2022/05/08 00:18:37;;;;;;;39.63;24.38;;;;;;;;;;6225212;28;20073;-58
2022/05/08 00:21:39;;;;;;;39.58;23.65;;;;;;;;;;6227088;28;20126;-58
2022/05/08 00:24:42;;;;;;;40.78;25.20;;;;;;;;;;6227265;28;20049;-57
2022/05/08 00:27:42;;;;;;;46.22;26.30;;;;;;;;;;6221830;28;20052;-59
2022/05/08 00:30:43;;;;;;;37.63;24.23;;;;;;;;;;6232257;28;20053;-58
2022/05/08 00:33:44;;;;;;;41.97;25.63;;;;;;;;;;6225939;28;20160;-58
2022/05/08 00:36:44;;;;;;;45.38;26.45;;;;;;;;;;6234195;28;20056;-59
2022/05/08 00:39:45;;;;;;;45.08;25.85;;;;;;;;;;6219562;28;20500;-59
2022/05/08 00:42:45;;;;;;;42.53;26.02;;;;;;;;;;6218985;28;20135;-57
2022/05/08 00:45:46;;;;;;;50.78;29.80;;;;;;;;;;6234663;28;20075;-58
2022/05/08 00:48:46;;;;;;;50.20;30.23;;;;;;;;;;6225768;28;20050;-59
2022/05/08 00:51:48;;;;;;;48.92;28.70;;;;;;;;;;6227059;28;20141;-58
2022/05/08 00:54:49;;;;;;;;;;;;;;;;;;6223935;28;20094;-59
2022/05/08 00:57:50;;;;;;;51.05;30.27;;;;;;;;;;6228008;28;20442;-58
2022/05/08 01:00:50;;;;;;;48.80;29.55;;;;;;;;;;6232420;28;20053;-59
2022/05/08 01:03:51;;;;;;;56.05;32.40;;;;;;;;;;6227388;28;20332;-58
2022/05/08 01:06:52;;;;;;;53.10;32.08;;;;;;;;;;6224239;28;20045;-59
2022/05/08 01:09:54;;;;;;;49.90;30.45;;;;;;;;;;6234373;28;20152;-59
2022/05/08 01:12:56;;;;;;;56.13;32.60;;;;;;;;;;6232709;28;20088;-59
2022/05/08 01:15:57;;;;;;;58.03;35.97;;;;;;;;;;6223728;28;20057;-59
2022/05/08 01:18:59;;;;;;;64.72;38.08;;;;;;;;;;6222264;28;20057;-59
2022/05/08 01:21:59;;;;;;;66.65;39.88;;;;;;;;;;6228214;28;20562;-59
2022/05/08 01:25:01;;;;;;;70.70;40.83;;;;;;;;;;6233401;28;20046;-58
2022/05/08 01:28:03;;;;;;;66.75;39.75;;;;;;;;;;6220723;28;20081;-59
2022/05/08 01:31:04;;;;;;;71.72;39.78;;;;;;;;;;6217387;28;20127;-59
2022/05/08 01:34:05;;;;;;;69.38;38.67;;;;;;;;;;6232657;28;20045;-59
2022/05/08 01:37:06;;;;;;;68.13;37.53;;;;;;;;;;6230087;28;20053;-57
2022/05/08 01:40:07;;;;;;;63.63;36.92;;;;;;;;;;6229938;28;20057;-59
2022/05/08 01:43:07;;;;;;;63.47;37.17;;;;;;;;;;6231636;28;20491;-59
2022/05/08 01:46:09;;;;;;;62.67;35.72;;;;;;;;;;6223319;28;20120;-57
2022/05/08 01:49:10;;;;;;;64.65;36.55;;;;;;;;;;6231072;28;20050;-58
2022/05/08 01:52:10;;;;;;;64.75;36.45;;;;;;;;;;6226196;28;20523;-59
2022/05/08 01:55:12;;;;;;;61.53;35.10;;;;;;;;;;6224788;28;20103;-59
2022/05/08 01:58:12;;;;;;;60.08;34.22;;;;;;;;;;6220192;28;20053;-59
2022/05/08 02:01:14;;;;;;;69.40;38.25;;;;;;;;;;6220935;28;20054;-59
2022/05/08 02:04:15;;;;;;;70.38;38.50;;;;;;;;;;6226403;28;20060;-59
2022/05/08 02:07:16;;;;;;;73.43;39.20;;;;;;;;;;6228396;28;20472;-58
2022/05/08 02:10:17;;;;;;;67.88;37.38;;;;;;;;;;6225567;28;20080;-59
2022/05/08 02:13:18;;;;;;;69.18;37.60;;;;;;;;;;6219160;28;20099;-59
2022/05/08 02:16:18;;;;;;;68.32;38.35;;;;;;;;;;6234225;28;20046;-59
2022/05/08 02:19:19;;;;;;;65.65;37.95;;;;;;;;;;6226078;28;20704;-58
2022/05/08 02:22:20;;;;;;;62.53;36.97;;;;;;;;;;6225118;28;20071;-59
2022/05/08 02:25:21;;;;;;;64.38;36.90;;;;;;;;;;6224296;28;20060;-59
2022/05/08 02:28:21;;;;;;;68.78;37.55;;;;;;;;;;6220738;28;20049;-59
2022/05/08 02:31:22;;;;;;;66.70;38.42;;;;;;;;;;6226850;28;20056;-59
2022/05/08 02:34:22;;;;;;;63.33;37.25;;;;;;;;;;6223560;28;20473;-58
2022/05/08 02:37:23;;;;;;;64.75;36.90;;;;;;;;;;6226298;28;20042;-60
2022/05/08 02:40:24;;;;;;;61.47;35.42;;;;;;;;;;6218689;28;20049;-59
2022/05/08 02:43:25;;;;;;;65.45;36.55;;;;;;;;;;6232602;28;20080;-60
2022/05/08 02:46:25;;;;;;;63.22;36.78;;;;;;;;;;6225610;28;20050;-60
2022/05/08 02:49:26;;;;;;;66.20;38.15;;;;;;;;;;6227495;28;20041;-60
2022/05/08 02:52:27;;;;;;;67.90;39.50;;;;;;;;;;6226662;28;20413;-59
2022/05/08 02:58:46;;;;;;;71.30;39.85;;;;;;;;;;6230198;28;20386;-58
2022/05/08 03:01:47;;;;;;;69.38;39.72;;;;;;;;;;6225272;28;20053;-58
2022/05/08 03:04:48;;;;;;;72.03;39.58;;;;;;;;;;6222252;28;20141;-60
2022/05/08 03:07:48;;;;;;;71.80;40.55;;;;;;;;;;6225708;28;20619;-60
2022/05/08 03:14:09;;;;;;;66.07;38.90;;;;;;;;;;6234587;28;20260;-58
2022/05/08 03:17:10;;;;;;;73.47;40.28;;;;;;;;;;6224159;28;20128;-58
2022/05/08 03:20:11;;;;;;;75.07;40.58;;;;;;;;;;6225096;28;20068;-60
2022/05/08 03:23:12;;;;;;;70.50;39.17;;;;;;;;;;6219100;28;20048;-60
2022/05/08 03:26:14;;;;;;;66.93;37.65;;;;;;;;;;6223760;28;20104;-60
2022/05/08 03:29:14;;;;;;;72.05;38.03;;;;;;;;;;6230840;28;20052;-59
2022/05/08 03:32:15;;;;;;;69.90;38.13;;;;;;;;;;6227832;28;20416;-60
2022/05/08 03:35:16;;;;;;;64.82;36.17;;;;;;;;;;6232228;28;20452;-60
2022/05/08 03:38:20;;;;;;;70.22;37.45;;;;;;;;;;6220571;28;20069;-58
2022/05/08 03:41:20;;;;;;;65.65;37.58;;;;;;;;;;6231606;28;20576;-59
2022/05/08 03:44:21;;;;;;;62.08;37.47;;;;;;;;;;6227936;28;20041;-60
2022/05/08 03:47:22;;;;;;;70.13;37.53;;;;;;;;;;6238108;28;20049;-59
2022/05/08 03:50:23;;;;;;;68.05;38.22;;;;;;;;;;6222762;28;20054;-60
2022/05/08 03:53:24;;;;;;;64.03;36.97;;;;;;;;;;6238805;28;20861;-60
2022/05/08 03:56:27;;;;;;;70.53;38.03;;;;;;;;;;6231330;28;20041;-59
2022/05/08 03:59:28;;;;;;;61.97;35.95;;;;;;;;;;6231650;28;20071;-57
2022/05/08 04:02:28;;;;;;;68.80;36.92;;;;;;;;;;6227901;28;20046;-60
2022/05/08 04:05:29;;;;;;;67.32;38.08;;;;;;;;;;6229761;28;20045;-59
2022/05/08 04:08:30;;;;;;;64.82;36.58;;;;;;;;;;6228196;28;20041;-59
2022/05/08 04:11:30;;;;;;;62.95;35.50;;;;;;;;;;6228994;28;20201;-59
2022/05/08 04:14:31;;;;;;;66.47;38.35;;;;;;;;;;6223737;28;20111;-59
2022/05/08 04:17:33;;;;;;;58.03;34.50;;;;;;;;;;6228971;28;20057;-59
2022/05/08 04:20:33;;;;;;;58.75;34.22;;;;;;;;;;6230604;28;20049;-59
2022/05/08 04:26:53;;;;;;;57.92;33.47;;;;;;;;;;6228054;28;20500;-60
2022/05/08 04:29:53;;;;;;;55.28;34.17;;;;;;;;;;6231554;28;20119;-60
2022/05/08 04:32:54;;;;;;;59.63;35.00;;;;;;;;;;6225479;28;20057;-59
2022/05/08 04:35:54;;;;;;;61.25;35.45;;;;;;;;;;6222836;28;20136;-57
2022/05/08 04:38:55;;;;;;;63.67;36.60;;;;;;;;;;6224552;28;20088;-60
2022/05/08 04:41:56;;;;;;;63.22;35.40;;;;;;;;;;6232845;28;20136;-60
2022/05/08 04:44:59;;;;;;;60.22;35.83;;;;;;;;;;6229084;28;20532;-61
2022/05/08 04:47:59;;;;;;;62.83;36.15;;;;;;;;;;6232363;28;20088;-58
2022/05/08 04:51:00;;;;;;;113.35;58.45;;;;;;;;;;6216742;28;20045;-57
2022/05/08 04:54:00;;;;;;;96.07;51.55;;;;;;;;;;6226246;28;20140;-60
2022/05/08 04:57:02;;;;;;;79.45;44.75;;;;;;;;;;6228490;28;20042;-59
2022/05/08 05:00:03;;;;;;;81.30;43.05;;;;;;;;;;6227775;28;20053;-60
2022/05/08 05:03:04;;;;;;;;;;;;;;;;;;6223399;28;20050;-59
2022/05/08 05:06:05;;;;;;;77.13;42.05;;;;;;;;;;6223276;28;19933;-60
2022/05/08 05:09:05;;;;;;;79.40;45.00;;;;;;;;;;6226714;28;20116;-59
2022/05/08 05:12:06;;;;;;;79.97;44.63;;;;;;;;;;6229338;28;20193;-60
2022/05/08 05:15:08;;;;;;;68.40;39.70;;;;;;;;;;6223465;28;20220;-60
2022/05/08 05:18:09;;;;;;;71.28;40.35;;;;;;;;;;6226299;28;20197;-59
2022/05/08 05:21:10;;;;;;;65.73;37.33;;;;;;;;;;6221327;28;20400;-60
2022/05/08 05:24:10;;;;;;;64.68;37.75;;;;;;;;;;6228276;28;20157;-60
2022/05/08 05:27:11;;;;;;;61.78;36.55;;;;;;;;;;6231882;28;20041;-60
2022/05/08 05:30:12;;;;;;;62.63;35.33;;;;;;;;;;6223480;28;20405;-60
2022/05/08 05:33:15;;;;;;;53.20;31.50;;;;;;;;;;6229743;28;20054;-58
2022/05/08 05:36:16;;;;;;;53.75;30.33;;;;;;;;;;6226578;28;20050;-59
2022/05/08 05:39:16;;;;;;;55.30;31.85;;;;;;;;;;6221506;28;20053;-59
2022/05/08 05:42:17;;;;;;;50.00;30.30;;;;;;;;;;6238806;28;20136;-59
2022/05/08 05:45:18;;;;;;;52.45;30.58;;;;;;;;;;6233902;28;20060;-58
2022/05/08 05:48:18;;;;;;;55.08;32.35;;;;;;;;;;6233823;28;20408;-60
2022/05/08 05:51:19;;;;;;;52.80;31.25;;;;;;;;;;6215092;28;20046;-59
2022/05/08 05:54:22;;;;;;;56.72;32.90;;;;;;;;;;6238151;28;20080;-59
2022/05/08 05:57:23;;;;;;;56.90;33.35;;;;;;;;;;6217983;28;20049;-60
2022/05/08 06:00:23;;;;;;;56.30;32.80;;;;;;;;;;6222740;28;20487;-59
2022/05/08 06:03:24;;;;;;;55.92;33.67;;;;;;;;;;6241119;28;20084;-59
2022/05/08 06:06:24;;;;;;;53.80;33.10;;;;;;;;;;6226652;28;20160;-60
2022/05/08 06:09:25;;;;;;;52.83;33.03;;;;;;;;;;6232349;28;20042;-60
2022/05/08 06:12:26;;;;;;;52.83;32.45;;;;;;;;;;6240295;28;20052;-60
2022/05/08 06:15:27;;;;;;;54.00;33.42;;;;;;;;;;6238530;28;20062;-60
2022/05/08 06:18:27;;;;;;;50.40;31.08;;;;;;;;;;6240484;28;20056;-59
2022/05/08 06:21:28;;;;;;;51.75;30.77;;;;;;;;;;6231595;28;20057;-59
2022/05/08 06:24:28;;;;;;;47.88;29.83;;;;;;;;;;6240526;28;20048;-59
2022/05/08 06:27:29;;;;;;;55.53;32.10;;;;;;;;;;6229548;28;20033;-59
2022/05/08 06:30:30;;;;;;;48.50;31.48;;;;;;;;;;6238929;28;20041;-59
2022/05/08 06:33:32;;;;;;;49.25;31.02;;;;;;;;;;6240914;28;20065;-59
2022/05/08 06:36:32;;;;;;;48.47;31.05;;;;;;;;;;6234534;28;20041;-60
2022/05/08 06:39:34;;;;;;;49.97;31.67;;;;;;;;;;6233877;28;20069;-60
2022/05/08 06:42:34;;;;;;;46.67;28.55;;;;;;;;;;6216755;28;20172;-59
2022/05/08 06:45:35;;;;;;;47.47;28.98;;;;;;;;;;6215777;28;20108;-59
2022/05/08 06:48:36;;;;;;;46.17;28.60;;;;;;;;;;6231821;28;20088;-59
2022/05/08 06:51:36;;;;;;;40.63;27.40;;;;;;;;;;6242024;28;20072;-59
2022/05/08 06:54:37;;;;;;;40.72;26.90;;;;;;;;;;6244022;28;20100;-59
2022/05/08 06:57:38;;;;;;;40.03;24.77;;;;;;;;;;6243728;28;20103;-59
2022/05/08 07:03:58;;;;;;;35.80;23.15;;;;;;;;;;6240051;28;20060;-60
2022/05/08 07:06:58;;;;;;;34.20;22.33;;;;;;;;;;6240201;28;20132;-60
2022/05/08 07:09:59;;;;;;;34.25;21.83;;;;;;;;;;6239295;28;20045;-59
2022/05/08 07:12:59;;;;;;;32.25;20.90;;;;;;;;;;6240749;28;20427;-59
2022/05/08 07:16:00;;;;;;;32.50;20.75;;;;;;;;;;6242564;28;20118;-59
2022/05/08 07:19:01;;;;;;;34.30;17.63;;;;;;;;;;6234901;28;20053;-59
2022/05/08 07:22:01;;;;;;;27.52;16.85;;;;;;;;;;6217636;28;20408;-58
2022/05/08 07:25:03;;;;;;;22.35;16.13;;;;;;;;;;6234896;28;20191;-59
2022/05/08 07:28:04;;;;;;;23.98;16.90;;;;;;;;;;6234642;28;20145;-59
2022/05/08 07:31:05;;;;;;;25.03;16.90;;;;;;;;;;6240966;28;20057;-59
2022/05/08 07:37:24;;;;;;;23.77;15.73;;;;;;;;;;6238556;28;20060;-59
2022/05/08 07:40:26;;;;;;;21.50;14.38;;;;;;;;;;6217686;28;20058;-60
2022/05/08 07:43:27;;;;;;;27.13;16.25;;;;;;;;;;6221206;28;20489;-58
2022/05/08 07:46:28;;;;;;;31.15;17.90;;;;;;;;;;6224374;28;20075;-60
2022/05/08 07:49:28;;;;;;;29.75;17.75;;;;;;;;;;6240694;28;20133;-59
2022/05/08 07:52:29;;;;;;;25.37;16.10;;;;;;;;;;6224412;28;20474;-59
2022/05/08 07:55:32;;;;;;;30.88;15.68;;;;;;;;;;6218402;28;20044;-59
2022/05/08 07:58:32;;;;;;;27.85;16.23;;;;;;;;;;6225264;28;20080;-59
2022/05/08 08:01:33;;;;;;;25.75;15.60;;;;;;;;;;6215921;28;20386;-58
2022/05/08 08:04:36;;;;;;;18.38;12.90;;;;;;;;;;6236733;28;20045;-59
2022/05/08 08:07:37;;;;;;;23.90;15.30;;;;;;;;;;6240289;28;20046;-59
2022/05/08 08:10:38;;;;;;;23.27;16.23;;;;;;;;;;6240350;28;20053;-59
2022/05/08 08:13:39;;;;;;;25.35;16.55;;;;;;;;;;6230824;28;20145;-58
2022/05/08 08:16:40;;;;;;;23.42;15.07;;;;;;;;;;6218952;28;20046;-59
2022/05/08 08:19:40;;;;;;;20.27;13.63;;;;;;;;;;6227949;28;20180;-60
2022/05/08 08:22:41;;;;;;;24.23;15.23;;;;;;;;;;6228710;28;20057;-59
2022/05/08 08:25:42;;;;;;;28.63;17.70;;;;;;;;;;6238510;28;20162;-59
2022/05/08 08:28:43;;;;;;;32.47;20.50;;;;;;;;;;6240434;28;20054;-58
2022/05/08 08:31:44;;;;;;;29.83;19.67;;;;;;;;;;6239866;28;20526;-58
2022/05/08 08:34:45;;;;;;;26.73;16.43;;;;;;;;;;6236771;28;20041;-58
2022/05/08 08:37:45;;;;;;;23.23;15.80;;;;;;;;;;6231613;28;20124;-59
2022/05/08 08:40:48;;;;;;;20.70;13.43;;;;;;;;;;6236628;28;20049;-59
2022/05/08 08:50:35;;;;;;;16.83;11.98;;;;;;;;;;6227740;28;20042;-60
2022/05/08 08:53:36;;;;;;;19.20;10.75;;;;;;;;;;6228579;28;20123;-61
2022/05/08 08:56:36;;;;;;;17.73;11.65;;;;;;;;;;6237156;28;20049;-60
2022/05/08 08:59:37;;;;;;;23.40;13.47;;;;;;;;;;6240455;28;20038;-59
2022/05/08 09:02:38;;;;;;;20.47;13.53;;;;;;;;;;6237025;28;20556;-59
2022/05/08 09:05:40;;;;;;;20.47;14.80;;;;;;;;;;6234736;28;20523;-60
2022/05/08 09:08:41;;;;;;;22.17;14.50;;;;;;;;;;6239187;28;20124;-65
2022/05/08 09:11:42;;;;;;;19.57;12.63;;;;;;;;;;6239143;28;20060;-59
2022/05/08 09:14:42;;;;;;;21.93;14.30;;;;;;;;;;6238062;28;20632;-59
2022/05/08 09:17:44;;;;;;;19.83;12.97;;;;;;;;;;6237561;28;20508;-58
2022/05/08 09:20:51;;;;;;;17.77;12.68;;;;;;;;;;6217285;28;20049;-58
2022/05/08 09:24:06;;;;;;;19.63;13.52;;;;;;;;;;6219690;28;20167;-57
2022/05/08 09:27:12;;;;;;;18.80;13.32;;;;;;;;;;6219349;28;20441;-60
2022/05/08 09:30:13;;;;;;;17.50;12.55;;;;;;;;;;6214966;28;20045;-59
2022/05/08 09:33:27;;;;;;;18.58;12.52;;;;;;;;;;6216370;28;20057;-60
2022/05/08 09:36:28;;;;;;;18.98;12.45;;;;;;;;;;6214205;28;20073;-60
2022/05/08 09:39:29;;;;;;;18.10;12.23;;;;;;;;;;6219177;28;20049;-58
2022/05/08 09:42:37;;;;;;;16.75;12.32;;;;;;;;;;6222190;28;20455;-65
2022/05/08 09:45:58;;;;;;;16.83;11.05;;;;;;;;;;6218326;28;20047;-60
2022/05/08 09:49:00;;;;;;;20.30;11.70;;;;;;;;;;6220889;28;20128;-58
2022/05/08 09:52:02;;;;;;;17.33;11.30;;;;;;;;;;6234700;28;20045;-60
2022/05/08 09:55:02;;;;;;;19.48;13.15;;;;;;;;;;6233301;28;20084;-59
2022/05/08 09:58:03;;;;;;;25.47;15.77;;;;;;;;;;6226220;28;20407;-62
2022/05/08 10:01:04;;;;;;;18.83;13.80;;;;;;;;;;6227868;28;20054;-61
2022/05/08 10:04:05;;;;;;;24.10;14.82;;;;;;;;;;6217717;28;20095;-61
2022/05/08 10:07:06;;;;;;;22.80;14.57;;;;;;;;;;6217826;28;20366;-62
2022/05/08 10:13:59;;;;;;;18.58;12.60;;;;;;;;;;6229175;28;20034;-64
2022/05/08 10:17:00;;;;;;;16.70;12.32;;;;;;;;;;6221659;28;20065;-59
2022/05/08 10:20:01;;;;;;;17.93;12.60;;;;;;;;;;6236730;28;20057;-60
2022/05/08 10:23:01;;;;;;;14.13;10.73;;;;;;;;;;6233350;28;20606;-60
2022/05/08 10:26:20;;;;;;;15.63;11.90;;;;;;;;;;6230976;28;20488;-63
2022/05/08 10:29:20;;;;;;;16.98;12.45;;;;;;;;;;6232315;28;20048;-57
2022/05/08 10:32:34;;;;;;;18.42;11.23;;;;;;;;;;6231507;28;20042;-60
2022/05/08 10:35:34;;;;;;;18.25;11.55;;;;;;;;;;6233729;28;20135;-59
2022/05/08 10:38:35;;;;;;;18.33;11.87;;;;;;;;;;6236408;28;20084;-59
2022/05/08 10:41:43;;;;;;;15.60;11.13;;;;;;;;;;6240032;28;20050;-60
2022/05/08 10:44:44;;;;;;;17.42;11.05;;;;;;;;;;6245790;28;20492;-60
2022/05/08 10:47:44;;;;;;;14.37;11.13;;;;;;;;;;6221594;28;20038;-59
2022/05/08 10:50:51;;;;;;;14.63;10.83;;;;;;;;;;6240707;28;20064;-59
2022/05/08 10:53:51;;;;;;;14.43;10.50;;;;;;;;;;6231534;28;20041;-59
2022/05/08 10:56:52;;;;;;;22.93;11.43;;;;;;;;;;6242119;28;20048;-60
2022/05/08 10:59:52;;;;;;;15.40;11.07;;;;;;;;;;6240521;28;20144;-60
2022/05/08 11:03:01;;;;;;;16.93;11.90;;;;;;;;;;6223597;28;20420;-60
2022/05/08 11:06:03;;;;;;;14.13;10.07;;;;;;;;;;6235414;28;20073;-65
2022/05/08 11:09:03;;;;;;;14.35;10.70;;;;;;;;;;6229213;28;20081;-60
2022/05/08 11:12:05;;;;;;;20.50;12.93;;;;;;;;;;6241043;28;20053;-61
2022/05/08 11:15:07;;;;;;;16.10;11.30;;;;;;;;;;6236867;28;20048;-61
2022/05/08 11:18:07;;;;;;;14.80;11.20;;;;;;;;;;6241068;28;20057;-61
2022/05/08 11:21:09;;;;;;;13.83;10.70;;;;;;;;;;6240777;28;20049;-60
2022/05/08 11:24:22;;;;;;;14.93;11.50;;;;;;;;;;6234934;28;20045;-59
2022/05/08 11:27:22;;;;;;;15.55;10.77;;;;;;;;;;6239652;28;20041;-61
2022/05/08 11:30:32;;;;;;;13.43;10.30;;;;;;;;;;6238909;28;20136;-59
2022/05/08 11:36:53;;;;;;;15.30;10.40;;;;;;;;;;6236666;28;20150;-59
2022/05/08 11:39:54;;;;;;;14.17;9.60;;;;;;;;;;6236036;28;20053;-60
2022/05/08 11:42:54;;;;;;;15.77;9.23;;;;;;;;;;6227695;28;20049;-59
2022/05/08 11:45:59;;;;;;;13.50;9.33;;;;;;;;;;6240020;28;20049;-59
2022/05/08 11:49:00;;;;;;;14.07;10.48;;;;;;;;;;6242052;28;20052;-60
2022/05/08 11:52:03;;;;;;;15.18;9.60;;;;;;;;;;6230491;28;20111;-60
2022/05/08 11:55:04;;;;;;;13.23;9.20;;;;;;;;;;6229115;28;20780;-60
2022/05/08 11:58:05;;;;;;;13.73;10.07;;;;;;;;;;6241412;28;20053;-61
2022/05/08 12:01:05;;;;;;;13.50;9.43;;;;;;;;;;6241212;28;20831;-58
2022/05/08 12:04:26;;;;;;;11.70;8.87;;;;;;;;;;6239069;28;20045;-63
2022/05/08 12:07:40;;;;;;;15.00;11.35;;;;;;;;;;6231250;28;20053;-60
2022/05/08 12:10:43;;;;;;;14.27;11.15;;;;;;;;;;6237932;28;20135;-62
2022/05/08 12:14:00;;;;;;;16.92;11.27;;;;;;;;;;6234539;28;20151;-60
2022/05/08 12:17:02;;;;;;;16.17;10.60;;;;;;;;;;6225060;28;20061;-62
2022/05/08 12:20:14;;;;;;;13.75;9.52;;;;;;;;;;6227174;28;20061;-60
2022/05/08 12:23:15;;;;;;;16.60;11.38;;;;;;;;;;6215715;28;20453;-60
2022/05/08 12:26:16;;;;;;;16.67;11.70;;;;;;;;;;6216739;28;20049;-61
2022/05/08 12:29:19;;;;;;;17.40;11.90;;;;;;;;;;6215013;28;20042;-60
2022/05/08 12:32:20;;;;;;;16.73;13.02;;;;;;;;;;6222895;28;20041;-59
2022/05/08 12:35:21;;;;;;;15.15;11.95;;;;;;;;;;6222019;28;20069;-61
2022/05/08 12:38:22;;;;;;;14.63;9.93;;;;;;;;;;6216885;28;20073;-60
2022/05/08 12:41:23;;;;;;;14.23;10.20;;;;;;;;;;6230786;28;20038;-59
2022/05/08 12:44:23;;;;;;;15.90;11.33;;;;;;;;;;6235411;28;20564;-60
2022/05/08 12:47:24;;;;;;;14.87;10.27;;;;;;;;;;6234052;28;20051;-61
2022/05/08 12:50:25;;;;;;;16.98;11.55;;;;;;;;;;6235976;28;20042;-60
2022/05/08 12:53:26;;;;;;;51.17;31.73;;;;;;;;;;6233363;28;20444;-60
2022/05/08 12:56:28;;;;;;;27.60;20.40;;;;;;;;;;6234320;28;20136;-60
2022/05/08 12:59:47;;;;;;;18.40;13.25;;;;;;;;;;6234246;28;20057;-59
2022/05/08 13:02:48;;;;;;;18.13;11.15;;;;;;;;;;6228995;28;20453;-60
2022/05/08 13:05:49;;;;;;;16.48;10.93;;;;;;;;;;6235983;28;20073;-59
2022/05/08 13:08:50;;;;;;;16.38;12.18;;;;;;;;;;6230839;28;20046;-58
2022/05/08 13:11:51;;;;;;;16.07;10.93;;;;;;;;;;6238019;28;20500;-60
2022/05/08 13:14:51;;;;;;;15.33;11.13;;;;;;;;;;6237138;28;20132;-59
2022/05/08 13:17:52;;;;;;;16.13;11.50;;;;;;;;;;6237630;28;20053;-59
2022/05/08 13:20:52;;;;;;;14.57;10.93;;;;;;;;;;6232094;28;20056;-59
2022/05/08 13:23:53;;;;;;;17.70;11.77;;;;;;;;;;6229239;28;20053;-59
2022/05/08 13:26:57;;;;;;;17.90;12.23;;;;;;;;;;6226605;28;20064;-58
2022/05/08 13:29:58;;;;;;;16.25;11.10;;;;;;;;;;6228037;28;20080;-59
2022/05/08 13:32:58;;;;;;;15.53;11.30;;;;;;;;;;6230645;28;20056;-64
2022/05/08 13:36:00;;;;;;;14.37;10.30;;;;;;;;;;6226917;28;20557;-59
2022/05/08 13:39:00;;;;;;;;;;;;;;;;;;6225427;28;20550;-60
2022/05/08 13:42:02;;;;;;;16.58;11.57;;;;;;;;;;6227428;28;19929;-59
2022/05/08 13:45:03;;;;;;;19.33;11.43;;;;;;;;;;6227167;28;20199;-58
2022/05/08 13:48:04;;;;;;;14.90;10.25;;;;;;;;;;6222971;28;20070;-59
2022/05/08 13:51:06;;;;;;;15.18;10.30;;;;;;;;;;6227690;28;20053;-59
2022/05/08 13:54:07;;;;;;;14.98;10.93;;;;;;;;;;6226871;28;20061;-59
2022/05/08 13:57:08;;;;;;;13.35;10.90;;;;;;;;;;6226587;28;20045;-59
2022/05/08 14:00:14;;;;;;;15.05;10.45;;;;;;;;;;6226951;28;20144;-57
2022/05/08 14:03:19;;;;;;;15.85;11.35;;;;;;;;;;6227764;28;20515;-58
2022/05/08 14:06:20;;;;;;;13.48;9.43;;;;;;;;;;6226401;28;20824;-61
2022/05/08 14:09:20;;;;;;;14.60;8.83;;;;;;;;;;6226589;28;20046;-60
2022/05/08 14:12:21;;;;;;;11.53;8.60;;;;;;;;;;6228469;28;20079;-60
2022/05/08 14:15:23;;;;;;;14.10;8.73;;;;;;;;;;6226461;28;20065;-61
2022/05/08 14:18:24;;;;;;;11.48;8.23;;;;;;;;;;6225706;28;20053;-60
2022/05/08 14:21:24;;;;;;;11.97;9.30;;;;;;;;;;6227976;28;20079;-59
2022/05/08 14:24:25;;;;;;;10.47;8.77;;;;;;;;;;6227505;28;20609;-59
2022/05/08 14:27:26;;;;;;;11.70;9.63;;;;;;;;;;6225367;28;20057;-60
2022/05/08 14:30:26;;;;;;;14.53;9.67;;;;;;;;;;6225624;28;20041;-60
2022/05/08 14:36:46;;;;;;;12.30;9.60;;;;;;;;;;6225829;28;20837;-60
2022/05/08 14:39:46;;;;;;;14.03;9.50;;;;;;;;;;6222823;28;20061;-60
2022/05/08 14:42:47;;;;;;;11.90;9.87;;;;;;;;;;6226204;28;20448;-58
2022/05/08 14:45:48;;;;;;;13.63;10.17;;;;;;;;;;6225167;28;20050;-60
2022/05/08 14:48:49;;;;;;;11.55;9.63;;;;;;;;;;6224606;28;20073;-59
2022/05/08 14:51:49;;;;;;;13.03;9.53;;;;;;;;;;6225131;28;20347;-60
2022/05/08 14:54:50;;;;;;;12.83;9.23;;;;;;;;;;6224610;28;20084;-59
2022/05/08 14:57:50;;;;;;;14.13;9.13;;;;;;;;;;6225673;28;20076;-58
2022/05/08 15:00:51;;;;;;;12.00;8.30;;;;;;;;;;6227109;28;20511;-60
2022/05/08 15:03:52;;;;;;;11.83;8.57;;;;;;;;;;6228756;28;20072;-61
2022/05/08 15:06:53;;;;;;;12.37;8.87;;;;;;;;;;6224964;28;20956;-60
2022/05/08 15:09:53;;;;;;;11.53;8.67;;;;;;;;;;6224576;28;20393;-60
2022/05/08 15:12:54;;;;;;;12.33;9.33;;;;;;;;;;6230051;28;20525;-60
2022/05/08 15:15:55;;;;;;;11.57;8.27;;;;;;;;;;6229422;28;20527;-60
2022/05/08 15:18:55;;;;;;;10.20;7.80;;;;;;;;;;6209722;28;20064;-60
2022/05/08 15:21:56;;;;;;;10.20;8.20;;;;;;;;;;6228801;28;20085;-61
2022/05/08 15:24:57;;;;;;;11.47;7.97;;;;;;;;;;6227485;28;20063;-61
2022/05/08 15:27:57;;;;;;;11.60;8.37;;;;;;;;;;6228820;28;20067;-61
2022/05/08 15:30:59;;;;;;;8.50;6.95;;;;;;;;;;6228324;28;20118;-61
2022/05/08 15:34:00;;;;;;;12.33;8.40;;;;;;;;;;6228448;28;20417;-61
2022/05/08 15:37:01;;;;;;;11.00;8.02;;;;;;;;;;6228817;28;20053;-60
2022/05/08 15:40:02;;;;;;;12.50;7.70;;;;;;;;;;6210219;28;20717;-61
2022/05/08 15:43:04;;;;;;;12.53;8.47;;;;;;;;;;6229009;28;20056;-60
2022/05/08 15:46:05;;;;;;;9.57;7.10;;;;;;;;;;6226054;28;20114;-60
2022/05/08 15:49:06;;;;;;;10.80;8.63;;;;;;;;;;6226416;28;20489;-59
2022/05/08 15:52:07;;;;;;;10.27;7.07;;;;;;;;;;6230758;28;20048;-60
2022/05/08 15:55:09;;;;;;;;;;;;;;;;;;6227064;28;20065;-61
2022/05/08 15:58:10;;;;;;;12.25;8.13;;;;;;;;;;6226950;28;19940;-60
2022/05/08 16:01:11;;;;;;;11.02;7.40;;;;;;;;;;6226135;28;20049;-60
2022/05/08 16:04:11;;;;;;;11.00;7.83;;;;;;;;;;6226121;28;20132;-62
2022/05/08 16:07:12;;;;;;;11.87;8.33;;;;;;;;;;6218687;28;20140;-61
2022/05/08 16:10:13;;;;;;;13.53;9.00;;;;;;;;;;6227007;28;20463;-61
2022/05/08 16:23:11;;;;;;;11.50;7.45;;;;;;;;;;6225839;28;20034;-60
2022/05/08 16:26:12;;;;;;;10.63;7.67;;;;;;;;;;6226633;28;20076;-58
2022/05/08 16:29:13;;;;;;;9.53;7.43;;;;;;;;;;6227130;28;20048;-60
2022/05/08 16:32:14;;;;;;;10.80;8.20;;;;;;;;;;6226671;28;20046;-62
2022/05/08 16:35:14;;;;;;;11.67;7.60;;;;;;;;;;6226611;28;20044;-59
2022/05/08 16:38:15;;;;;;;9.37;7.40;;;;;;;;;;6227766;28;20539;-61
2022/05/08 16:41:16;;;;;;;11.83;7.47;;;;;;;;;;6226415;28;20868;-60
2022/05/08 16:44:20;;;;;;;8.83;6.73;;;;;;;;;;6226885;28;20049;-61
2022/05/08 16:47:20;;;;;;;10.13;7.38;;;;;;;;;;6228249;28;20485;-61
2022/05/08 16:50:22;;;;;;;16.07;7.83;;;;;;;;;;6226876;28;20127;-60
2022/05/08 16:53:23;;;;;;;12.10;8.20;;;;;;;;;;6227576;28;20393;-60
2022/05/08 16:56:23;;;;;;;10.23;8.10;;;;;;;;;;6227138;28;20132;-59
2022/05/08 16:59:24;;;;;;;13.67;8.20;;;;;;;;;;6228670;28;20052;-60
2022/05/08 17:02:24;;;;;;;13.00;8.87;;;;;;;;;;6206452;28;20582;-61
2022/05/08 17:05:26;;;;;;;12.80;9.37;;;;;;;;;;6225143;28;21531;-62
2022/05/08 17:08:27;;;;;;;16.75;10.02;;;;;;;;;;6224787;28;21133;-60
2022/05/08 17:11:28;;;;;;;15.60;10.70;;;;;;;;;;6223781;28;20132;-59
2022/05/08 17:14:28;;;;;;;14.70;9.10;;;;;;;;;;6223687;28;20175;-60
2022/05/08 17:17:29;;;;;;;14.07;8.65;;;;;;;;;;6225443;28;20756;-60
2022/05/08 17:20:30;;;;;;;11.70;8.33;;;;;;;;;;6223388;28;20141;-59
2022/05/08 17:23:30;;;;;;;13.48;9.10;;;;;;;;;;6221703;28;20045;-60
2022/05/08 17:28:45;;;;;;;13.32;8.70;;;;;;;;;;6223609;28;20050;-59
2022/05/08 17:29:54;;;;;;;13.38;8.52;;;;;;;;;;6221928;28;20061;-61
2022/05/08 17:32:55;;;;;;;14.48;8.90;;;;;;;;;;6222136;28;20081;-61
2022/05/08 17:35:56;;;;;;;17.25;9.27;;;;;;;;;;6222718;28;20056;-60
2022/05/08 17:38:57;;;;;;;12.30;9.10;;;;;;;;;;6218742;28;20835;-60
2022/05/08 17:41:57;;;;;;;13.63;8.70;;;;;;;;;;6219139;28;20081;-60
2022/05/08 17:44:59;;;;;;;12.98;8.90;;;;;;;;;;6217923;28;20547;-61
2022/05/08 17:47:59;;;;;;;17.17;10.55;;;;;;;;;;6218345;28;20079;-60
2022/05/08 17:51:02;;;;;;;15.57;11.52;;;;;;;;;;6214252;28;20133;-60
2022/05/08 17:54:02;;;;;;;15.93;11.43;;;;;;;;;;6215249;28;20045;-60
2022/05/08 17:57:04;;;;;;;17.38;11.93;;;;;;;;;;6220053;28;20686;-60
2022/05/08 18:00:06;;;;;;;15.32;9.68;;;;;;;;;;6221675;28;20606;-59
2022/05/08 18:06:25;;;;;;;18.33;10.93;;;;;;;;;;6220682;28;20053;-59
2022/05/08 18:09:26;;;;;;;18.27;11.20;;;;;;;;;;6223937;28;20460;-58
2022/05/08 18:12:27;;;;;;;14.40;10.52;;;;;;;;;;6223329;28;20668;-59
2022/05/08 18:15:28;;;;;;;17.00;11.55;;;;;;;;;;6221107;28;20512;-60
2022/05/08 18:18:29;;;;;;;20.40;13.18;;;;;;;;;;6222223;28;20064;-60
2022/05/08 18:21:30;;;;;;;18.60;13.57;;;;;;;;;;6224625;28;20076;-60
2022/05/08 18:24:30;;;;;;;21.35;13.55;;;;;;;;;;6221351;28;20046;-59
2022/05/08 18:27:31;;;;;;;20.60;13.48;;;;;;;;;;6223129;28;20053;-60